createdAt,value
2016-03-31T00:00:02.754Z,20.56
2016-03-31T00:01:02.757Z,20.56
2016-03-31T00:02:02.759Z,20.65
2016-03-31T00:03:02.762Z,20.36
2016-03-31T00:04:02.781Z,20.36
2016-03-31T00:05:02.784Z,20.56
2016-03-31T00:06:02.786Z,20.36
2016-03-31T00:07:02.788Z,20.46
2016-03-31T00:08:02.791Z,20.26
2016-03-31T00:09:02.809Z,20.26
2016-03-31T00:10:02.797Z,20.56
2016-03-31T00:11:02.814Z,20.65
2016-03-31T00:12:02.817Z,20.56
2016-03-31T00:13:02.820Z,20.65
2016-03-31T00:14:02.839Z,20.56
2016-03-31T00:15:02.842Z,20.36
2016-03-31T00:16:04.406Z,20.56
2016-03-31T00:17:02.846Z,20.56
2016-03-31T00:18:02.880Z,20.46
2016-03-31T00:19:02.866Z,20.56
2016-03-31T00:20:04.238Z,20.46
2016-03-31T00:21:02.866Z,20.26
2016-03-31T00:22:02.868Z,20.36
2016-03-31T00:23:02.885Z,20.65
2016-03-31T00:24:02.889Z,20.56
2016-03-31T00:25:02.891Z,20.46
2016-03-31T00:26:02.910Z,20.56
2016-03-31T00:27:02.897Z,20.56
2016-03-31T00:28:02.915Z,20.36
2016-03-31T00:29:02.918Z,20.46
2016-03-31T00:30:02.937Z,20.56
2016-03-31T00:31:02.928Z,20.26
2016-03-31T00:32:02.947Z,20.36
2016-03-31T00:33:02.937Z,20.46
2016-03-31T00:34:02.939Z,20.56
2016-03-31T00:35:02.957Z,20.26
2016-03-31T00:36:02.960Z,20.56
2016-03-31T00:37:02.963Z,20.36
2016-03-31T00:38:02.965Z,20.65
2016-03-31T00:39:02.967Z,20.46
2016-03-31T00:40:02.971Z,20.36
2016-03-31T00:41:02.989Z,20.17
2016-03-31T00:42:02.976Z,20.26
2016-03-31T00:43:02.995Z,20.17
2016-03-31T00:44:02.997Z,20.26
2016-03-31T00:45:03.000Z,20.56
2016-03-31T00:46:17.128Z,20.17
2016-03-31T00:47:03.021Z,20.17
2016-03-31T00:48:03.024Z,20.56
2016-03-31T00:49:03.027Z,20.46
2016-03-31T00:50:03.044Z,20.46
2016-03-31T00:51:03.048Z,20.17
2016-03-31T00:52:03.050Z,20.46
2016-03-31T00:53:03.053Z,20.46
2016-03-31T00:54:03.071Z,20.56
2016-03-31T00:55:03.058Z,20.65
2016-03-31T00:56:03.076Z,20.65
2016-03-31T00:57:03.079Z,20.36
2016-03-31T00:58:03.082Z,20.65
2016-03-31T00:59:03.085Z,20.46
2016-03-31T01:00:03.103Z,20.65
2016-03-31T01:01:03.106Z,20.36
2016-03-31T01:02:03.109Z,20.65
2016-03-31T01:03:03.126Z,20.65
2016-03-31T01:04:03.114Z,20.17
2016-03-31T01:05:03.132Z,20.46
2016-03-31T01:06:03.134Z,20.36
2016-03-31T01:07:03.184Z,20.65
2016-03-31T01:08:03.140Z,20.65
2016-03-31T01:09:03.158Z,20.46
2016-03-31T01:10:03.162Z,20.65
2016-03-31T01:11:03.164Z,20.46
2016-03-31T01:12:03.167Z,20.56
2016-03-31T01:13:03.184Z,20.65
2016-03-31T01:14:03.172Z,20.56
2016-03-31T01:15:03.190Z,20.26
2016-03-31T01:16:03.192Z,20.56
2016-03-31T01:17:03.211Z,20.56
2016-03-31T01:18:03.198Z,20.56
2016-03-31T01:19:03.216Z,20.36
2016-03-31T01:20:03.219Z,20.56
2016-03-31T01:21:03.221Z,20.36
2016-03-31T01:22:03.224Z,20.46
2016-03-31T01:23:03.243Z,20.46
2016-03-31T01:24:03.261Z,20.56
2016-03-31T01:25:03.263Z,20.75
2016-03-31T01:26:03.251Z,20.56
2016-03-31T01:27:03.268Z,20.65
2016-03-31T01:28:03.256Z,20.46
2016-03-31T01:29:03.274Z,20.65
2016-03-31T01:30:03.276Z,20.56
2016-03-31T01:31:03.279Z,20.46
2016-03-31T01:32:03.282Z,20.56
2016-03-31T01:33:03.301Z,20.46
2016-03-31T01:34:03.303Z,20.56
2016-03-31T01:35:03.150Z,20.46
2016-03-31T01:36:03.309Z,20.46
2016-03-31T01:37:03.311Z,20.17
2016-03-31T01:38:03.345Z,20.26
2016-03-31T01:39:03.318Z,20.74
2016-03-31T01:40:03.336Z,20.46
2016-03-31T01:41:03.338Z,20.46
2016-03-31T01:42:03.342Z,20.46
2016-03-31T01:43:03.359Z,20.65
2016-03-31T01:44:03.362Z,20.56
2016-03-31T01:45:03.364Z,20.54
2016-03-31T01:46:03.414Z,20.26
2016-03-31T01:47:03.370Z,20.26
2016-03-31T01:48:03.372Z,20.65
2016-03-31T01:49:03.391Z,20.35
2016-03-31T01:50:03.394Z,20.56
2016-03-31T01:51:03.411Z,20.36
2016-03-31T01:52:03.399Z,20.75
2016-03-31T01:53:03.417Z,20.56
2016-03-31T01:54:03.419Z,20.46
2016-03-31T01:55:03.422Z,20.65
2016-03-31T01:56:03.425Z,20.65
2016-03-31T01:57:03.443Z,20.26
2016-03-31T01:58:03.446Z,20.46
2016-03-31T01:59:03.449Z,20.46
2016-03-31T02:00:03.452Z,20.46
2016-03-31T02:01:03.454Z,20.64
2016-03-31T02:02:03.473Z,20.36
2016-03-31T02:03:03.460Z,20.35
2016-03-31T02:04:03.493Z,20.64
2016-03-31T02:05:03.481Z,20.46
2016-03-31T02:06:03.484Z,20.64
2016-03-31T02:07:03.486Z,20.46
2016-03-31T02:08:03.513Z,20.65
2016-03-31T02:09:03.532Z,20.75
2016-03-31T02:10:03.518Z,20.35
2016-03-31T02:11:03.506Z,20.45
2016-03-31T02:12:03.508Z,20.56
2016-03-31T02:13:03.543Z,20.56
2016-03-31T02:14:03.545Z,20.64
2016-03-31T02:15:03.548Z,20.56
2016-03-31T02:16:03.534Z,20.56
2016-03-31T02:17:03.553Z,20.56
2016-03-31T02:18:03.574Z,20.26
2016-03-31T02:19:03.562Z,20.56
2016-03-31T02:20:03.580Z,20.54
2016-03-31T02:21:03.567Z,20.65
2016-03-31T02:22:03.570Z,20.35
2016-03-31T02:23:03.587Z,20.36
2016-03-31T02:24:03.590Z,20.54
2016-03-31T02:25:03.592Z,20.45
2016-03-31T02:26:03.595Z,20.64
2016-03-31T02:27:03.614Z,20.56
2016-03-31T02:28:03.616Z,20.56
2016-03-31T02:29:03.619Z,20.54
2016-03-31T02:30:03.622Z,20.36
2016-03-31T02:31:03.640Z,20.36
2016-03-31T02:32:03.643Z,20.65
2016-03-31T02:33:03.661Z,20.56
2016-03-31T02:34:03.649Z,20.56
2016-03-31T02:35:03.682Z,20.65
2016-03-31T02:36:03.654Z,20.74
2016-03-31T02:37:03.672Z,20.26
2016-03-31T02:38:03.674Z,20.35
2016-03-31T02:39:03.693Z,20.46
2016-03-31T02:40:03.680Z,20.54
2016-03-31T02:41:03.682Z,20.25
2016-03-31T02:42:03.686Z,20.54
2016-03-31T02:43:03.704Z,20.36
2016-03-31T02:44:03.707Z,20.35
2016-03-31T02:45:03.709Z,20.36
2016-03-31T02:46:17.838Z,20.35
2016-03-31T02:47:03.730Z,20.36
2016-03-31T02:48:03.732Z,20.46
2016-03-31T02:49:03.735Z,20.25
2016-03-31T02:50:03.738Z,20.46
2016-03-31T02:51:03.756Z,20.54
2016-03-31T02:52:03.744Z,20.74
2016-03-31T02:53:03.762Z,20.64
2016-03-31T02:54:03.765Z,20.45
2016-03-31T02:55:03.767Z,20.74
2016-03-31T02:56:03.770Z,20.54
2016-03-31T02:57:03.789Z,20.74
2016-03-31T02:58:03.775Z,20.54
2016-03-31T02:59:03.794Z,20.54
2016-03-31T03:00:03.797Z,20.64
2016-03-31T03:01:03.814Z,20.74
2016-03-31T03:02:03.803Z,20.35
2016-03-31T03:03:03.820Z,20.74
2016-03-31T03:04:03.823Z,20.46
2016-03-31T03:05:03.825Z,20.45
2016-03-31T03:06:03.828Z,20.54
2016-03-31T03:07:03.847Z,20.26
2016-03-31T03:08:03.823Z,20.54
2016-03-31T03:09:03.831Z,20.45
2016-03-31T03:10:03.849Z,20.35
2016-03-31T03:11:03.837Z,20.45
2016-03-31T03:12:03.855Z,20.45
2016-03-31T03:13:03.842Z,20.45
2016-03-31T03:14:03.861Z,20.45
2016-03-31T03:15:03.863Z,20.64
2016-03-31T03:16:03.882Z,20.45
2016-03-31T03:17:03.885Z,20.45
2016-03-31T03:18:03.888Z,20.45
2016-03-31T03:19:03.874Z,20.74
2016-03-31T03:20:03.892Z,20.25
2016-03-31T03:21:03.896Z,20.54
2016-03-31T03:22:03.898Z,20.35
2016-03-31T03:23:03.916Z,20.54
2016-03-31T03:24:03.904Z,20.74
2016-03-31T03:25:03.921Z,20.64
2016-03-31T03:26:03.924Z,20.64
2016-03-31T03:27:03.926Z,20.64
2016-03-31T03:28:03.946Z,20.54
2016-03-31T03:29:03.948Z,20.64
2016-03-31T03:30:03.950Z,20.54
2016-03-31T03:31:03.954Z,20.74
2016-03-31T03:32:03.956Z,20.64
2016-03-31T03:33:03.974Z,20.64
2016-03-31T03:34:03.977Z,20.64
2016-03-31T03:35:03.979Z,20.64
2016-03-31T03:36:03.981Z,20.64
2016-03-31T03:37:03.984Z,20.64
2016-03-31T03:38:03.987Z,20.54
2016-03-31T03:39:04.005Z,20.64
2016-03-31T03:40:04.008Z,20.64
2016-03-31T03:41:04.011Z,20.74
2016-03-31T03:42:04.014Z,20.74
2016-03-31T03:43:04.016Z,20.64
2016-03-31T03:44:04.036Z,20.64
2016-03-31T03:45:04.038Z,20.54
2016-03-31T03:46:04.055Z,20.54
2016-03-31T03:47:04.059Z,20.64
2016-03-31T03:48:04.046Z,20.64
2016-03-31T03:49:04.064Z,20.64
2016-03-31T03:50:03.910Z,20.64
2016-03-31T03:51:04.069Z,20.74
2016-03-31T03:52:04.088Z,20.64
2016-03-31T03:53:04.075Z,20.64
2016-03-31T03:54:04.094Z,20.54
2016-03-31T03:55:04.096Z,20.74
2016-03-31T03:56:04.098Z,20.74
2016-03-31T03:57:04.102Z,20.64
2016-03-31T03:58:04.120Z,20.54
2016-03-31T03:59:04.107Z,20.74
2016-03-31T04:00:04.125Z,20.74
2016-03-31T04:01:04.128Z,20.64
2016-03-31T04:02:04.130Z,20.74
2016-03-31T04:03:04.133Z,20.54
2016-03-31T04:04:04.151Z,20.64
2016-03-31T04:05:04.154Z,20.74
2016-03-31T04:06:04.156Z,20.64
2016-03-31T04:07:04.159Z,20.54
2016-03-31T04:08:04.162Z,20.74
2016-03-31T04:09:04.180Z,20.54
2016-03-31T04:10:04.167Z,20.64
2016-03-31T04:11:04.186Z,20.64
2016-03-31T04:12:04.215Z,20.74
2016-03-31T04:13:05.072Z,20.83
2016-03-31T04:14:04.024Z,20.74
2016-03-31T04:15:04.241Z,20.74
2016-03-31T04:16:04.290Z,20.64
2016-03-31T04:17:04.199Z,20.64
2016-03-31T04:18:04.185Z,20.74
2016-03-31T04:19:04.205Z,20.64
2016-03-31T04:20:04.207Z,20.64
2016-03-31T04:21:04.225Z,20.45
2016-03-31T04:22:04.212Z,20.45
2016-03-31T04:23:04.231Z,20.54
2016-03-31T04:24:04.218Z,20.64
2016-03-31T04:25:04.252Z,20.64
2016-03-31T04:26:04.308Z,20.64
2016-03-31T04:27:04.377Z,20.74
2016-03-31T04:28:04.418Z,20.64
2016-03-31T04:29:04.488Z,20.74
2016-03-31T04:30:04.532Z,20.75
2016-03-31T04:31:04.397Z,20.54
2016-03-31T04:32:04.575Z,20.74
2016-03-31T04:33:04.596Z,20.64
2016-03-31T04:34:04.618Z,20.74
2016-03-31T04:35:04.652Z,20.64
2016-03-31T04:36:04.661Z,20.54
2016-03-31T04:37:04.670Z,20.64
2016-03-31T04:38:04.679Z,20.75
2016-03-31T04:39:04.703Z,20.74
2016-03-31T04:40:04.758Z,20.54
2016-03-31T04:41:04.716Z,20.45
2016-03-31T04:42:04.738Z,20.45
2016-03-31T04:43:04.726Z,20.74
2016-03-31T04:44:04.747Z,20.74
2016-03-31T04:45:04.752Z,20.74
2016-03-31T04:46:06.615Z,20.64
2016-03-31T04:47:04.759Z,20.64
2016-03-31T04:48:04.764Z,20.74
2016-03-31T04:49:04.783Z,20.74
2016-03-31T04:50:04.787Z,20.64
2016-03-31T04:51:04.790Z,20.74
2016-03-31T04:52:04.793Z,20.64
2016-03-31T04:53:04.796Z,20.64
2016-03-31T04:54:04.814Z,20.74
2016-03-31T04:55:04.817Z,20.64
2016-03-31T04:56:04.836Z,20.64
2016-03-31T04:57:04.855Z,20.54
2016-03-31T04:58:04.826Z,20.64
2016-03-31T04:59:04.844Z,20.45
2016-03-31T05:00:04.831Z,20.64
2016-03-31T05:01:04.866Z,20.64
2016-03-31T05:02:04.852Z,20.64
2016-03-31T05:03:04.872Z,20.64
2016-03-31T05:04:04.858Z,20.74
2016-03-31T05:05:04.861Z,20.64
2016-03-31T05:06:04.880Z,20.54
2016-03-31T05:07:04.883Z,20.64
2016-03-31T05:08:04.885Z,20.64
2016-03-31T05:09:04.888Z,20.74
2016-03-31T05:10:04.890Z,20.54
2016-03-31T05:11:04.908Z,20.74
2016-03-31T05:12:04.911Z,20.64
2016-03-31T05:13:04.913Z,20.54
2016-03-31T05:14:04.916Z,20.64
2016-03-31T05:15:04.919Z,20.64
2016-03-31T05:16:04.984Z,20.64
2016-03-31T05:17:04.941Z,20.64
2016-03-31T05:18:04.943Z,20.74
2016-03-31T05:19:04.960Z,20.64
2016-03-31T05:20:04.964Z,20.45
2016-03-31T05:21:04.966Z,20.54
2016-03-31T05:22:04.985Z,20.74
2016-03-31T05:23:04.971Z,20.65
2016-03-31T05:24:04.990Z,20.54
2016-03-31T05:25:04.993Z,20.64
2016-03-31T05:26:04.996Z,20.74
2016-03-31T05:27:05.015Z,20.54
2016-03-31T05:28:05.001Z,20.74
2016-03-31T05:29:05.003Z,20.65
2016-03-31T05:30:05.023Z,20.64
2016-03-31T05:31:05.009Z,20.64
2016-03-31T05:32:05.027Z,20.54
2016-03-31T05:33:05.030Z,20.54
2016-03-31T05:34:05.048Z,20.54
2016-03-31T05:35:05.050Z,20.64
2016-03-31T05:36:05.038Z,20.54
2016-03-31T05:37:05.041Z,20.74
2016-03-31T05:38:05.058Z,20.64
2016-03-31T05:39:05.062Z,20.74
2016-03-31T05:40:05.080Z,20.75
2016-03-31T05:41:05.067Z,20.75
2016-03-31T05:42:05.085Z,20.74
2016-03-31T05:43:05.088Z,20.54
2016-03-31T05:44:05.137Z,20.54
2016-03-31T05:45:05.094Z,20.56
2016-03-31T05:46:05.096Z,20.74
2016-03-31T05:47:05.115Z,20.64
2016-03-31T05:48:05.117Z,20.64
2016-03-31T05:49:05.121Z,20.64
2016-03-31T05:50:05.138Z,20.56
2016-03-31T05:51:05.125Z,20.74
2016-03-31T05:52:05.160Z,20.74
2016-03-31T05:53:05.146Z,20.75
2016-03-31T05:54:05.149Z,20.45
2016-03-31T05:55:05.168Z,20.64
2016-03-31T05:56:05.154Z,20.45
2016-03-31T05:57:05.157Z,20.65
2016-03-31T05:58:05.175Z,20.56
2016-03-31T05:59:05.178Z,20.64
2016-03-31T06:00:05.195Z,20.65
2016-03-31T06:01:05.184Z,20.75
2016-03-31T06:02:05.201Z,20.46
2016-03-31T06:03:05.204Z,20.64
2016-03-31T06:04:05.207Z,20.54
2016-03-31T06:05:05.209Z,20.54
2016-03-31T06:06:05.244Z,20.56
2016-03-31T06:07:05.231Z,20.45
2016-03-31T06:08:05.233Z,20.56
2016-03-31T06:09:05.236Z,20.54
2016-03-31T06:10:05.239Z,20.64
2016-03-31T06:11:05.242Z,20.64
2016-03-31T06:12:05.260Z,20.64
2016-03-31T06:13:05.247Z,20.64
2016-03-31T06:14:05.266Z,20.56
2016-03-31T06:15:05.283Z,20.35
2016-03-31T06:16:05.271Z,20.54
2016-03-31T06:17:05.289Z,20.65
2016-03-31T06:18:05.291Z,20.64
2016-03-31T06:19:05.294Z,20.64
2016-03-31T06:20:05.296Z,20.64
2016-03-31T06:21:05.315Z,20.54
2016-03-31T06:22:05.302Z,20.56
2016-03-31T06:23:05.321Z,20.56
2016-03-31T06:24:05.323Z,20.46
2016-03-31T06:25:05.326Z,20.46
2016-03-31T06:26:05.329Z,20.65
2016-03-31T06:27:05.348Z,20.45
2016-03-31T06:28:05.334Z,20.64
2016-03-31T06:29:05.353Z,20.64
2016-03-31T06:30:05.356Z,20.64
2016-03-31T06:31:05.373Z,20.54
2016-03-31T06:32:05.361Z,20.45
2016-03-31T06:33:05.378Z,20.65
2016-03-31T06:34:05.382Z,20.65
2016-03-31T06:35:05.384Z,20.64
2016-03-31T06:36:05.386Z,20.56
2016-03-31T06:37:05.234Z,20.74
2016-03-31T06:38:05.392Z,20.54
2016-03-31T06:39:05.411Z,20.65
2016-03-31T06:40:05.414Z,20.64
2016-03-31T06:41:05.431Z,20.65
2016-03-31T06:42:05.419Z,20.64
2016-03-31T06:43:05.436Z,20.74
2016-03-31T06:44:05.439Z,20.65
2016-03-31T06:45:05.442Z,20.65
2016-03-31T06:46:05.476Z,20.75
2016-03-31T06:47:05.464Z,20.64
2016-03-31T06:48:05.466Z,20.64
2016-03-31T06:49:05.468Z,20.65
2016-03-31T06:50:05.472Z,20.64
2016-03-31T06:51:05.474Z,20.56
2016-03-31T06:52:05.476Z,20.64
2016-03-31T06:53:05.496Z,20.65
2016-03-31T06:54:05.498Z,20.56
2016-03-31T06:55:05.501Z,20.64
2016-03-31T06:56:05.504Z,20.45
2016-03-31T06:57:05.521Z,20.56
2016-03-31T06:58:05.509Z,20.54
2016-03-31T06:59:05.511Z,20.65
2016-03-31T07:00:05.592Z,20.65
2016-03-31T07:01:05.532Z,20.64
2016-03-31T07:02:05.550Z,20.65
2016-03-31T07:03:05.554Z,20.56
2016-03-31T07:04:05.556Z,20.56
2016-03-31T07:05:05.574Z,20.65
2016-03-31T07:06:05.562Z,20.54
2016-03-31T07:07:05.580Z,20.65
2016-03-31T07:08:05.587Z,20.65
2016-03-31T07:09:05.574Z,20.75
2016-03-31T07:10:05.577Z,20.65
2016-03-31T07:11:05.580Z,20.75
2016-03-31T07:12:05.597Z,20.74
2016-03-31T07:13:05.600Z,20.56
2016-03-31T07:14:05.603Z,20.56
2016-03-31T07:15:05.605Z,20.54
2016-03-31T07:16:05.625Z,20.45
2016-03-31T07:17:05.643Z,20.45
2016-03-31T07:18:05.629Z,20.75
2016-03-31T07:19:05.633Z,20.54
2016-03-31T07:20:05.651Z,20.45
2016-03-31T07:21:05.637Z,20.45
2016-03-31T07:22:05.656Z,20.64
2016-03-31T07:23:05.660Z,20.64
2016-03-31T07:24:05.662Z,20.65
2016-03-31T07:25:05.664Z,20.54
2016-03-31T07:26:05.682Z,20.65
2016-03-31T07:27:05.685Z,20.56
2016-03-31T07:28:05.687Z,20.54
2016-03-31T07:29:05.690Z,20.64
2016-03-31T07:30:05.709Z,20.74
2016-03-31T07:31:05.711Z,20.54
2016-03-31T07:32:05.714Z,20.36
2016-03-31T07:33:05.717Z,20.56
2016-03-31T07:34:05.736Z,20.46
2016-03-31T07:35:05.722Z,20.17
2016-03-31T07:36:05.725Z,19.89
2016-03-31T07:37:05.728Z,19.7
2016-03-31T07:38:05.761Z,19.5
2016-03-31T07:39:05.749Z,19.98
2016-03-31T07:40:05.752Z,19.22
2016-03-31T07:41:05.769Z,19.03
2016-03-31T07:42:05.772Z,19.32
2016-03-31T07:43:05.760Z,19.32
2016-03-31T07:44:05.778Z,18.93
2016-03-31T07:45:05.796Z,18.93
2016-03-31T07:46:05.799Z,19.04
2016-03-31T07:47:05.801Z,18.36
2016-03-31T07:48:05.805Z,18.55
2016-03-31T07:49:05.822Z,18.65
2016-03-31T07:50:05.810Z,18.36
2016-03-31T07:51:05.828Z,17.78
2016-03-31T07:52:05.830Z,17.97
2016-03-31T07:53:05.833Z,18.18
2016-03-31T07:54:05.835Z,17.97
2016-03-31T07:55:05.838Z,18.08
2016-03-31T07:56:05.841Z,18.08
2016-03-31T07:57:05.859Z,18.36
2016-03-31T07:58:05.862Z,18.65
2016-03-31T07:59:05.881Z,18.76
2016-03-31T08:00:05.884Z,17.78
2016-03-31T08:01:05.886Z,18.55
2016-03-31T08:02:05.904Z,18.55
2016-03-31T08:03:05.906Z,18.07
2016-03-31T08:04:05.894Z,18.55
2016-03-31T08:05:05.912Z,18.55
2016-03-31T08:06:05.915Z,18.55
2016-03-31T08:07:05.934Z,18.85
2016-03-31T08:08:05.936Z,18.85
2016-03-31T08:09:05.939Z,18.55
2016-03-31T08:10:05.942Z,18.85
2016-03-31T08:11:05.945Z,18.65
2016-03-31T08:12:05.947Z,18.65
2016-03-31T08:13:05.950Z,18.75
2016-03-31T08:14:05.952Z,20.29
2016-03-31T08:15:05.955Z,20.64
2016-03-31T08:16:06.019Z,21.89
2016-03-31T08:17:05.961Z,21.68
2016-03-31T08:18:05.963Z,20.63
2016-03-31T08:19:05.966Z,19.87
2016-03-31T08:20:05.968Z,21.62
2016-03-31T08:21:05.971Z,22.26
2016-03-31T08:22:05.974Z,23.4
2016-03-31T08:23:05.976Z,21.66
2016-03-31T08:24:05.963Z,20.43
2016-03-31T08:25:05.965Z,21.88
2016-03-31T08:26:05.984Z,22.93
2016-03-31T08:27:05.971Z,21.86
2016-03-31T08:28:05.973Z,21.88
2016-03-31T08:29:05.962Z,21.58
2016-03-31T08:30:05.964Z,21.89
2016-03-31T08:31:05.967Z,22.64
2016-03-31T08:32:05.969Z,23.03
2016-03-31T08:33:05.956Z,21.88
2016-03-31T08:34:05.959Z,21.98
2016-03-31T08:35:05.946Z,20.81
2016-03-31T08:36:05.964Z,20.56
2016-03-31T08:37:05.951Z,19.6
2016-03-31T08:38:05.954Z,21.04
2016-03-31T08:39:05.956Z,21.03
2016-03-31T08:40:05.960Z,20.43
2016-03-31T08:41:05.947Z,19.49
2016-03-31T08:42:05.950Z,20.76
2016-03-31T08:43:05.953Z,20.07
2016-03-31T08:44:05.955Z,18.93
2016-03-31T08:45:05.958Z,19.88
2016-03-31T08:46:05.976Z,21.61
2016-03-31T08:47:05.963Z,22.08
2016-03-31T08:48:05.950Z,20.93
2016-03-31T08:49:05.953Z,21.31
2016-03-31T08:50:05.955Z,24.27
2016-03-31T08:51:05.973Z,23.28
2016-03-31T08:52:05.945Z,23.97
2016-03-31T08:53:05.948Z,25.88
2016-03-31T08:54:05.935Z,23.18
2016-03-31T08:55:05.937Z,22.91
2016-03-31T08:56:05.940Z,23.58
2016-03-31T08:57:05.927Z,23.46
2016-03-31T08:58:05.930Z,24.35
2016-03-31T08:59:05.932Z,23.86
2016-03-31T09:00:05.935Z,21.67
2016-03-31T09:01:05.923Z,21.21
2016-03-31T09:02:05.926Z,23.61
2016-03-31T09:03:05.912Z,24.91
2016-03-31T09:04:05.914Z,25.18
2016-03-31T09:05:05.902Z,24.04
2016-03-31T09:06:05.904Z,24.04
2016-03-31T09:07:05.906Z,21.66
2016-03-31T09:08:05.909Z,23.04
2016-03-31T09:09:05.912Z,22.91
2016-03-31T09:10:05.900Z,21.95
2016-03-31T09:11:05.902Z,22.53
2016-03-31T09:12:05.905Z,22.13
2016-03-31T09:13:05.892Z,21.55
2016-03-31T09:14:05.894Z,20.98
2016-03-31T09:15:05.897Z,20.4
2016-03-31T09:16:05.885Z,20.33
2016-03-31T09:17:05.872Z,19.09
2016-03-31T09:18:05.906Z,20.16
2016-03-31T09:19:05.877Z,19.58
2016-03-31T09:20:05.880Z,21.01
2016-03-31T09:21:05.883Z,21.86
2016-03-31T09:22:05.869Z,22.05
2016-03-31T09:23:05.872Z,22.24
2016-03-31T09:24:05.859Z,22.22
2016-03-31T09:25:05.863Z,21.85
2016-03-31T09:26:05.865Z,23.11
2016-03-31T09:27:05.868Z,21.44
2016-03-31T09:28:05.855Z,21.56
2016-03-31T09:29:05.857Z,21.95
2016-03-31T09:30:05.844Z,21.95
2016-03-31T09:31:05.846Z,21.84
2016-03-31T09:32:05.849Z,21.28
2016-03-31T09:33:05.868Z,22.22
2016-03-31T09:34:05.855Z,22.43
2016-03-31T09:35:05.842Z,22.13
2016-03-31T09:36:05.829Z,22.33
2016-03-31T09:37:05.832Z,22.24
2016-03-31T09:38:05.834Z,21.95
2016-03-31T09:39:05.837Z,22.05
2016-03-31T09:40:05.822Z,23.3
2016-03-31T09:41:05.825Z,21.55
2016-03-31T09:42:05.812Z,21.88
2016-03-31T09:43:05.814Z,21.75
2016-03-31T09:44:05.801Z,22.24
2016-03-31T09:45:05.804Z,23.2
2016-03-31T09:46:05.792Z,22.31
2016-03-31T09:47:05.794Z,21.64
2016-03-31T09:48:05.811Z,20.21
2016-03-31T09:49:05.783Z,20.53
2016-03-31T09:50:05.785Z,19.75
2016-03-31T09:51:05.788Z,18.62
2016-03-31T09:52:05.791Z,18.43
2016-03-31T09:53:05.794Z,18.25
2016-03-31T09:54:05.781Z,18.34
2016-03-31T09:55:05.784Z,18.06
2016-03-31T09:56:05.802Z,17.97
2016-03-31T09:57:05.789Z,18.06
2016-03-31T09:58:05.792Z,17.68
2016-03-31T09:59:05.794Z,17.77
2016-03-31T10:00:05.813Z,17.78
2016-03-31T10:01:05.799Z,16.91
2016-03-31T10:02:05.818Z,17.11
2016-03-31T10:03:05.727Z,16.91
2016-03-31T10:04:05.840Z,17.3
2016-03-31T10:05:05.827Z,17.68
2016-03-31T10:06:05.845Z,17.89
2016-03-31T10:07:05.847Z,18.07
2016-03-31T10:08:05.850Z,17.78
2016-03-31T10:09:05.853Z,17.49
2016-03-31T10:10:05.871Z,17.68
2016-03-31T10:11:06.202Z,17.78
2016-03-31T10:12:05.861Z,17.79
2016-03-31T10:13:05.878Z,17.79
2016-03-31T10:14:05.881Z,18.08
2016-03-31T10:15:05.900Z,17.79
2016-03-31T10:16:05.887Z,17.88
2016-03-31T10:17:05.906Z,18.07
2016-03-31T10:18:05.955Z,17.97
2016-03-31T10:19:05.927Z,17.97
2016-03-31T10:20:05.930Z,17.88
2016-03-31T10:21:05.916Z,17.79
2016-03-31T10:22:05.936Z,17.89
2016-03-31T10:23:05.938Z,17.78
2016-03-31T10:24:05.956Z,18.17
2016-03-31T10:25:05.958Z,18.17
2016-03-31T10:26:05.961Z,18.07
2016-03-31T10:27:05.964Z,18.17
2016-03-31T10:28:05.966Z,17.97
2016-03-31T10:29:05.969Z,17.69
2016-03-31T10:30:05.987Z,17.6
2016-03-31T10:31:05.990Z,17.5
2016-03-31T10:32:05.993Z,17.41
2016-03-31T10:33:06.090Z,17.12
2016-03-31T10:34:06.013Z,17.02
2016-03-31T10:35:06.016Z,17.32
2016-03-31T10:36:06.034Z,17.22
2016-03-31T10:37:06.037Z,17.7
2016-03-31T10:38:06.040Z,17.99
2016-03-31T10:39:06.043Z,18.19
2016-03-31T10:40:06.062Z,17.8
2016-03-31T10:41:06.064Z,17.99
2016-03-31T10:42:06.067Z,18.38
2016-03-31T10:43:06.069Z,18.19
2016-03-31T10:44:06.073Z,17.9
2016-03-31T10:45:06.075Z,18.09
2016-03-31T10:46:06.093Z,18.19
2016-03-31T10:47:06.127Z,18.37
2016-03-31T10:48:06.145Z,17.89
2016-03-31T10:49:06.117Z,18.08
2016-03-31T10:50:06.135Z,18.47
2016-03-31T10:51:06.122Z,18.57
2016-03-31T10:52:06.141Z,18.18
2016-03-31T10:53:06.159Z,18.08
2016-03-31T10:54:06.146Z,18.37
2016-03-31T10:55:06.149Z,18.37
2016-03-31T10:56:06.166Z,18.08
2016-03-31T10:57:06.169Z,18.08
2016-03-31T10:58:06.172Z,18.08
2016-03-31T10:59:06.175Z,17.79
2016-03-31T11:00:06.209Z,18.66
2016-03-31T11:01:06.196Z,18.47
2016-03-31T11:02:06.199Z,18.27
2016-03-31T11:03:06.202Z,17.79
2016-03-31T11:04:06.219Z,18.57
2016-03-31T11:05:06.066Z,18.57
2016-03-31T11:06:06.225Z,18.18
2016-03-31T11:07:06.227Z,18.27
2016-03-31T11:08:06.230Z,18.66
2016-03-31T11:09:06.248Z,18.76
2016-03-31T11:10:06.251Z,18.27
2016-03-31T11:11:06.270Z,18.47
2016-03-31T11:12:06.257Z,18.27
2016-03-31T11:13:06.275Z,18.57
2016-03-31T11:14:06.278Z,18.76
2016-03-31T11:15:06.281Z,18.76
2016-03-31T11:16:06.299Z,18.47
2016-03-31T11:17:06.301Z,18.66
2016-03-31T11:18:06.320Z,18.57
2016-03-31T11:19:06.307Z,18.57
2016-03-31T11:20:06.325Z,18.27
2016-03-31T11:21:06.328Z,18.37
2016-03-31T11:22:06.331Z,18.27
2016-03-31T11:23:06.349Z,18.47
2016-03-31T11:24:06.352Z,18.76
2016-03-31T11:25:06.370Z,18.57
2016-03-31T11:26:06.373Z,18.27
2016-03-31T11:27:06.375Z,18.47
2016-03-31T11:28:06.394Z,18.27
2016-03-31T11:29:06.396Z,18.47
2016-03-31T11:30:06.399Z,18.95
2016-03-31T11:31:06.401Z,18.66
2016-03-31T11:32:06.419Z,18.57
2016-03-31T11:33:06.485Z,18.57
2016-03-31T11:34:06.424Z,18.47
2016-03-31T11:35:06.428Z,18.37
2016-03-31T11:36:06.446Z,18.48
2016-03-31T11:37:06.432Z,18.67
2016-03-31T11:38:06.451Z,18.19
2016-03-31T11:39:06.454Z,18.09
2016-03-31T11:40:06.457Z,17.99
2016-03-31T11:41:06.460Z,18.19
2016-03-31T11:42:06.478Z,18.28
2016-03-31T11:43:06.481Z,18.09
2016-03-31T11:44:06.483Z,18.19
2016-03-31T11:45:06.501Z,17.99
2016-03-31T11:46:07.301Z,13.15
2016-03-31T11:47:06.507Z,15.36
2016-03-31T11:48:06.509Z,14.66
2016-03-31T11:49:06.512Z,14.56
2016-03-31T11:50:06.514Z,14.84
2016-03-31T11:51:06.517Z,14.26
2016-03-31T11:52:06.520Z,14.35
2016-03-31T11:53:06.523Z,15.02
2016-03-31T11:54:06.526Z,14.34
2016-03-31T11:55:06.513Z,13.67
2016-03-31T11:56:06.516Z,13.3
2016-03-31T11:57:06.518Z,13.21
2016-03-31T11:58:06.505Z,12.26
2016-03-31T11:59:06.508Z,12.54
2016-03-31T12:00:06.510Z,13.01
2016-03-31T12:01:06.514Z,13.69
2016-03-31T12:02:06.516Z,13.87
2016-03-31T12:03:06.519Z,13.48
2016-03-31T12:04:06.522Z,13.68
2016-03-31T12:05:06.525Z,13.58
2016-03-31T12:06:06.511Z,12.63
2016-03-31T12:07:06.530Z,13.69
2016-03-31T12:08:06.516Z,14.25
2016-03-31T12:09:06.519Z,14.15
2016-03-31T12:10:06.521Z,14.15
2016-03-31T12:11:06.524Z,13.87
2016-03-31T12:12:06.527Z,13.1
2016-03-31T12:13:06.530Z,13.1
2016-03-31T12:14:06.549Z,13.59
2016-03-31T12:15:06.535Z,13.39
2016-03-31T12:16:06.742Z,12.14
2016-03-31T12:17:06.525Z,12.63
2016-03-31T12:18:06.543Z,12.62
2016-03-31T12:19:06.530Z,13.59
2016-03-31T12:20:06.534Z,13.58
2016-03-31T12:21:06.536Z,13.3
2016-03-31T12:22:06.539Z,13.2
2016-03-31T12:23:06.526Z,13.2
2016-03-31T12:24:06.529Z,13.11
2016-03-31T12:25:06.547Z,12.92
2016-03-31T12:26:06.550Z,12.74
2016-03-31T12:27:06.552Z,12.36
2016-03-31T12:28:06.539Z,12.07
2016-03-31T12:29:06.541Z,12.46
2016-03-31T12:30:06.544Z,12.94
2016-03-31T12:31:06.563Z,12.65
2016-03-31T12:32:06.566Z,12.65
2016-03-31T12:33:06.599Z,12.76
2016-03-31T12:34:06.571Z,13.04
2016-03-31T12:35:06.573Z,13.13
2016-03-31T12:36:06.576Z,12.76
2016-03-31T12:37:06.579Z,13.53
2016-03-31T12:38:06.597Z,13.34
2016-03-31T12:39:06.600Z,13.34
2016-03-31T12:40:06.602Z,13.62
2016-03-31T12:41:06.605Z,13.24
2016-03-31T12:42:06.607Z,13.53
2016-03-31T12:43:06.610Z,13.82
2016-03-31T12:44:06.629Z,13.62
2016-03-31T12:45:06.632Z,13.72
2016-03-31T12:46:06.634Z,13.63
2016-03-31T12:47:06.637Z,13.72
2016-03-31T12:48:06.655Z,13.73
2016-03-31T12:49:06.658Z,13.73
2016-03-31T12:50:06.661Z,13.63
2016-03-31T12:51:06.679Z,14.02
2016-03-31T12:52:06.682Z,13.73
2016-03-31T12:53:06.528Z,13.73